Time;durP1;ratioP1;P1;durP2;ratioP2;P2;SDS_P1;SDS_P2;PMS_P1;PMS_P2;Temp;Humidity;BMP_temperature;BMP_pressure;BME280_temperature;BME280_humidity;BME280_pressure;Samples;Min_cycle;Max_cycle;Signal;HPM_P1;HPM_P2
2021/12/01 00:01:30;;;;;;;1.75;0.90;;;6.80;99.90;;;;;;5012725;28;20453;-49
2021/12/01 00:03:56;;;;;;;1.10;1.10;;;6.80;99.90;;;;;;5011469;28;20479;-53
2021/12/01 00:06:21;;;;;;;1.00;1.00;;;6.70;99.90;;;;;;5011395;28;20026;-49
2021/12/01 00:08:47;;;;;;;1.40;1.30;;;6.80;99.90;;;;;;5012933;28;20036;-47
2021/12/01 00:11:12;;;;;;;1.17;1.10;;;6.80;99.90;;;;;;5012357;28;20089;-48
2021/12/01 00:13:38;;;;;;;1.85;1.63;;;6.70;99.90;;;;;;5012877;28;20103;-52
2021/12/01 00:16:04;;;;;;;4.95;1.60;;;6.60;99.90;;;;;;5012853;28;20026;-47
2021/12/01 00:18:30;;;;;;;1.45;1.35;;;6.50;99.90;;;;;;5012105;28;20022;-48
2021/12/01 00:20:56;;;;;;;5.38;1.52;;;6.50;99.90;;;;;;5011479;28;20022;-45
2021/12/01 00:23:22;;;;;;;1.38;1.27;;;6.50;99.90;;;;;;5012156;28;20111;-47
2021/12/01 00:25:48;;;;;;;1.88;1.77;;;6.40;99.90;;;;;;5012151;28;20026;-49
2021/12/01 00:28:14;;;;;;;1.55;1.45;;;6.40;99.90;;;;;;5012098;28;20026;-49
2021/12/01 00:30:42;;;;;;;1.52;1.35;;;6.40;99.90;;;;;;5012042;28;20026;-48
2021/12/01 00:33:10;;;;;;;1.50;1.40;;;6.40;99.90;;;;;;5021242;22;20097;-44
2021/12/01 00:35:35;;;;;;;1.70;1.60;;;6.30;99.90;;;;;;4991275;28;20026;-45
2021/12/01 00:38:01;;;;;;;1.60;1.50;;;6.30;99.90;;;;;;4992536;28;20117;-47
2021/12/01 00:40:26;;;;;;;1.58;1.38;;;6.30;99.90;;;;;;4992617;28;20077;-46
2021/12/01 00:42:52;;;;;;;1.55;1.45;;;6.30;99.90;;;;;;4992638;28;20030;-47
2021/12/01 00:45:21;;;;;;;2.03;1.92;;;6.40;99.90;;;;;;4991977;28;20126;-47
2021/12/01 00:47:53;;;;;;;1.30;1.30;;;6.40;99.90;;;;;;4992582;28;20392;-45
2021/12/01 00:50:22;;;;;;;1.60;1.50;;;6.50;99.90;;;;;;4992266;28;20030;-52
2021/12/01 00:52:48;;;;;;;1.40;1.30;;;6.40;99.90;;;;;;4992562;28;20096;-46
2021/12/01 00:55:13;;;;;;;1.17;1.10;;;6.40;99.90;;;;;;4992598;28;20034;-44
2021/12/01 00:57:39;;;;;;;2.55;1.83;;;6.40;99.90;;;;;;4992428;28;20065;-47
2021/12/01 01:00:07;;;;;;;2.75;1.33;;;6.40;99.90;;;;;;4993374;28;20061;-49
2021/12/01 01:02:33;;;;;;;1.40;1.30;;;6.40;99.90;;;;;;4992633;28;20022;-45
2021/12/01 01:04:58;;;;;;;2.65;2.42;;;6.40;99.90;;;;;;4992312;28;20031;-46
2021/12/01 01:07:24;;;;;;;1.75;1.65;;;6.40;99.90;;;;;;4991264;28;20026;-46
2021/12/01 01:09:50;;;;;;;2.13;1.42;;;6.50;99.90;;;;;;4992126;28;20474;-43
2021/12/01 01:17:51;;;;;;;1.42;1.33;;;6.50;99.90;;;;;;4992866;28;20026;-43
2021/12/01 01:20:17;;;;;;;1.00;1.00;;;6.50;99.90;;;;;;4992131;28;20469;-46
2021/12/01 01:22:43;;;;;;;1.15;1.15;;;6.40;99.90;;;;;;4992128;28;20264;-45
2021/12/01 01:25:08;;;;;;;2.28;1.00;;;6.50;99.90;;;;;;4992041;28;20022;-45
2021/12/01 01:27:34;;;;;;;1.42;1.05;;;6.40;99.90;;;;;;4992288;28;20078;-44
2021/12/01 01:30:00;;;;;;;1.08;0.95;;;6.40;99.90;;;;;;4991888;28;20073;-49
2021/12/01 01:32:25;;;;;;;1.00;1.00;;;6.40;99.90;;;;;;4995734;28;20038;-44
2021/12/01 01:34:51;;;;;;;0.52;0.52;;;6.40;99.90;;;;;;4996004;28;20117;-46
2021/12/01 01:37:17;;;;;;;0.90;0.90;;;6.40;99.90;;;;;;4995876;28;20062;-47
2021/12/01 01:39:42;;;;;;;0.88;0.88;;;6.40;99.90;;;;;;4995575;28;20042;-48
2021/12/01 01:42:08;;;;;;;0.95;0.77;;;6.40;99.90;;;;;;4995913;28;20472;-48
2021/12/01 01:44:34;;;;;;;1.02;0.93;;;6.40;99.90;;;;;;4995521;28;20480;-42
2021/12/01 01:47:01;;;;;;;0.70;0.70;;;6.40;99.90;;;;;;4995730;28;20029;-45
2021/12/01 01:49:49;;;;;;;0.70;0.70;;;6.40;99.90;;;;;;4995397;28;20096;-48
2021/12/01 01:52:15;;;;;;;0.80;0.80;;;6.40;99.90;;;;;;4995663;28;20395;-47
2021/12/01 01:54:40;;;;;;;0.60;0.60;;;6.40;99.90;;;;;;4995726;28;20041;-46
2021/12/01 01:57:06;;;;;;;0.63;0.63;;;6.40;99.90;;;;;;4994310;28;20022;-46
2021/12/01 01:59:32;;;;;;;0.45;0.45;;;6.50;99.90;;;;;;4995179;28;20050;-46
2021/12/01 02:01:58;;;;;;;0.50;0.50;;;6.40;99.90;;;;;;4995548;28;20026;-46
2021/12/01 02:04:25;;;;;;;0.57;0.57;;;6.50;99.90;;;;;;4995383;28;20018;-46
2021/12/01 02:06:51;;;;;;;0.77;0.75;;;6.50;99.90;;;;;;4995433;28;20027;-46
2021/12/01 02:09:20;;;;;;;0.60;0.60;;;6.50;99.90;;;;;;4995075;28;20033;-45
2021/12/01 02:11:47;;;;;;;0.73;0.60;;;6.50;99.90;;;;;;4995212;28;20030;-49
2021/12/01 02:14:12;;;;;;;0.50;0.50;;;6.40;99.90;;;;;;4995197;28;20034;-48
2021/12/01 02:16:39;;;;;;;0.95;0.77;;;6.40;99.90;;;;;;4995085;28;20030;-47
2021/12/01 02:19:05;;;;;;;0.60;0.60;;;6.40;99.90;;;;;;4994754;28;20034;-47
2021/12/01 02:21:31;;;;;;;0.85;0.85;;;6.40;99.90;;;;;;4993651;28;20022;-47
2021/12/01 02:24:05;;;;;;;0.73;0.73;;;6.50;99.90;;;;;;4995087;28;20531;-46
2021/12/01 02:26:33;;;;;;;0.70;0.70;;;6.50;99.90;;;;;;4995010;28;20026;-48
2021/12/01 02:29:02;;;;;;;0.80;0.80;;;6.40;99.90;;;;;;4993527;28;20026;-45
2021/12/01 02:31:33;;;;;;;0.90;0.82;;;6.40;99.90;;;;;;4993151;28;20118;-46
2021/12/01 02:33:58;;;;;;;1.15;0.80;;;6.50;99.90;;;;;;4994998;28;20030;-46
2021/12/01 02:36:24;;;;;;;0.90;0.90;;;6.50;99.90;;;;;;4994928;28;20074;-44
2021/12/01 02:38:50;;;;;;;0.68;0.68;;;6.50;99.90;;;;;;4994593;28;20061;-46
2021/12/01 02:41:17;;;;;;;0.77;0.77;;;6.50;99.90;;;;;;4994286;28;20077;-48
2021/12/01 02:43:44;;;;;;;1.48;0.93;;;6.50;99.90;;;;;;4993286;28;20081;-46
2021/12/01 02:46:10;;;;;;;0.85;0.85;;;6.50;99.90;;;;;;4994730;28;20030;-49
2021/12/01 02:48:41;;;;;;;1.00;1.00;;;6.50;99.90;;;;;;4995455;28;20030;-44
2021/12/01 02:51:09;;;;;;;0.82;0.82;;;6.50;99.90;;;;;;4994536;28;20028;-45
2021/12/01 02:53:35;;;;;;;0.88;0.88;;;6.50;99.90;;;;;;4994377;28;20026;-44
2021/12/01 02:56:03;;;;;;;3.30;1.13;;;6.50;99.90;;;;;;4994399;28;20026;-47
2021/12/01 02:58:38;;;;;;;1.00;1.00;;;6.50;99.90;;;;;;4994293;28;20104;-44
2021/12/01 03:01:06;;;;;;;1.30;1.10;;;6.50;99.90;;;;;;4994112;28;20046;-44
2021/12/01 03:03:32;;;;;;;2.25;1.05;;;6.50;99.90;;;;;;4994317;28;20061;-43
2021/12/01 03:05:58;;;;;;;1.23;1.23;;;6.50;99.90;;;;;;4994229;28;20037;-44
2021/12/01 03:08:24;;;;;;;1.23;1.23;;;6.50;99.90;;;;;;4994200;28;20049;-47
2021/12/01 03:10:52;;;;;;;2.97;1.20;;;6.50;99.90;;;;;;4993885;28;20109;-44
2021/12/01 03:13:19;;;;;;;1.80;1.52;;;6.50;99.90;;;;;;4994055;28;20033;-46
2021/12/01 03:15:45;;;;;;;2.47;1.50;;;6.50;99.90;;;;;;4994091;28;20029;-44
2021/12/01 03:18:12;;;;;;;2.05;1.30;;;6.50;99.90;;;;;;4994013;28;20034;-44
2021/12/01 03:20:38;;;;;;;1.85;1.70;;;6.40;99.90;;;;;;4993766;28;20034;-44
2021/12/01 03:23:04;;;;;;;2.50;1.60;;;6.50;99.90;;;;;;4993961;28;20229;-44
2021/12/01 03:25:30;;;;;;;3.53;1.70;;;6.50;99.90;;;;;;4993848;28;20026;-47
2021/12/01 03:27:55;;;;;;;1.75;1.63;;;6.50;99.90;;;;;;4993992;28;20098;-45
2021/12/01 03:30:22;;;;;;;2.05;1.52;;;6.50;99.90;;;;;;4993623;28;20022;-44
2021/12/01 03:32:48;;;;;;;1.35;1.33;;;6.50;99.90;;;;;;4993541;28;20026;-46
2021/12/01 03:35:15;;;;;;;1.80;1.70;;;6.50;99.90;;;;;;4993855;28;20022;-44
2021/12/01 03:37:42;;;;;;;1.90;1.80;;;6.50;99.90;;;;;;4993611;28;20026;-45
2021/12/01 03:40:09;;;;;;;2.25;1.95;;;6.50;99.90;;;;;;4993415;28;20035;-44
2021/12/01 03:42:35;;;;;;;3.92;1.92;;;6.50;99.90;;;;;;4993533;28;20026;-48
2021/12/01 03:45:01;;;;;;;2.92;1.80;;;6.60;99.90;;;;;;4993458;28;20085;-44
2021/12/01 03:47:27;;;;;;;1.90;1.80;;;6.60;99.90;;;;;;4993534;28;20022;-44
2021/12/01 03:49:54;;;;;;;2.10;2.00;;;6.60;99.90;;;;;;4993090;28;20395;-47
2021/12/01 03:52:20;;;;;;;2.10;1.90;;;6.60;99.90;;;;;;4993372;28;20403;-46
2021/12/01 03:54:47;;;;;;;1.77;1.67;;;6.60;99.90;;;;;;4993347;28;20026;-45
2021/12/01 03:57:14;;;;;;;2.55;2.30;;;6.70;99.90;;;;;;4993443;28;20030;-43
2021/12/01 03:59:40;;;;;;;3.85;2.15;;;6.70;99.90;;;;;;4992892;28;20034;-46
2021/12/01 04:02:06;;;;;;;2.17;1.98;;;6.70;99.90;;;;;;4991756;28;20030;-45
2021/12/01 04:04:32;;;;;;;3.40;2.10;;;6.70;99.90;;;;;;4993222;28;20477;-44
2021/12/01 04:06:58;;;;;;;2.30;1.98;;;6.70;99.90;;;;;;4993170;28;20026;-47
2021/12/01 04:09:24;;;;;;;3.22;2.40;;;6.70;99.90;;;;;;4992845;28;20114;-43
2021/12/01 04:11:50;;;;;;;2.88;2.13;;;6.70;99.90;;;;;;4993044;28;20403;-45
2021/12/01 04:14:16;;;;;;;2.30;1.95;;;6.80;99.90;;;;;;4993075;28;20030;-46
2021/12/01 04:16:41;;;;;;;3.50;2.00;;;6.70;99.90;;;;;;4993048;28;20112;-46
2021/12/01 04:19:07;;;;;;;2.35;2.15;;;6.90;99.90;;;;;;4992449;28;20034;-47
2021/12/01 04:21:32;;;;;;;2.33;1.98;;;6.80;99.90;;;;;;4992762;28;20026;-45
2021/12/01 04:23:59;;;;;;;2.17;2.08;;;6.80;99.90;;;;;;4992897;28;20069;-44
2021/12/01 04:26:27;;;;;;;2.95;2.15;;;6.80;99.90;;;;;;4992920;28;20373;-45
2021/12/01 04:28:53;;;;;;;2.88;2.05;;;6.80;99.90;;;;;;4993178;28;20032;-44
2021/12/01 04:31:19;;;;;;;2.10;1.90;;;6.80;99.90;;;;;;4992463;28;20026;-44
2021/12/01 04:33:46;;;;;;;2.05;1.88;;;6.80;99.90;;;;;;4992728;28;20042;-44
2021/12/01 04:36:11;;;;;;;2.38;2.17;;;6.80;99.90;;;;;;4992837;28;20027;-41
2021/12/01 04:38:37;;;;;;;2.53;2.17;;;6.80;99.90;;;;;;4992546;28;20034;-44
2021/12/01 04:41:04;;;;;;;2.50;2.22;;;6.80;99.90;;;;;;4992456;28;20033;-44
2021/12/01 04:43:30;;;;;;;2.17;1.80;;;6.80;99.90;;;;;;4992161;28;20500;-49
2021/12/01 04:45:59;;;;;;;2.08;1.98;;;6.80;99.90;;;;;;4992488;28;20037;-48
2021/12/01 04:48:29;;;;;;;3.28;2.13;;;6.80;99.90;;;;;;4992622;28;20022;-45
2021/12/01 04:50:54;;;;;;;2.97;2.08;;;6.70;99.90;;;;;;4992031;28;20036;-48
2021/12/01 04:53:20;;;;;;;2.65;2.35;;;6.80;99.90;;;;;;4992480;28;20293;-43
2021/12/01 04:55:46;;;;;;;1.95;1.85;;;6.80;99.90;;;;;;4992412;28;20026;-46
2021/12/01 04:58:12;;;;;;;3.13;2.38;;;6.80;99.90;;;;;;4992418;28;20026;-44
2021/12/01 05:00:38;;;;;;;2.50;2.30;;;6.80;99.90;;;;;;4991928;28;20025;-45
2021/12/01 05:03:04;;;;;;;2.80;2.60;;;6.80;99.90;;;;;;4992224;28;20030;-45
2021/12/01 05:05:30;;;;;;;2.60;2.40;;;6.90;99.90;;;;;;4992036;28;20037;-44
2021/12/01 05:07:56;;;;;;;2.45;1.70;;;6.80;99.90;;;;;;4992162;28;20026;-47
2021/12/01 05:10:22;;;;;;;2.67;2.30;;;6.90;99.90;;;;;;4992343;28;20483;-49
2021/12/01 05:12:48;;;;;;;1.83;1.67;;;6.90;99.90;;;;;;4991882;28;20027;-45
2021/12/01 05:15:14;;;;;;;2.53;2.33;;;6.90;99.90;;;;;;4992001;28;20022;-47
2021/12/01 05:17:40;;;;;;;2.45;2.30;;;6.90;99.90;;;;;;4990772;28;20037;-47
2021/12/01 05:20:07;;;;;;;1.75;1.45;;;6.90;99.90;;;;;;4991619;28;20369;-49
2021/12/01 05:22:34;;;;;;;2.22;2.05;;;6.90;99.90;;;;;;4991906;28;20034;-45
2021/12/01 05:25:00;;;;;;;1.83;1.73;;;6.90;99.90;;;;;;4991968;28;20019;-47
2021/12/01 05:27:25;;;;;;;1.80;1.70;;;6.90;99.90;;;;;;4991833;28;20037;-45
2021/12/01 05:29:51;;;;;;;2.35;1.85;;;7.00;99.90;;;;;;4991743;28;20030;-45
2021/12/01 05:32:17;;;;;;;2.97;2.20;;;7.00;99.90;;;;;;4991740;28;20039;-44
2021/12/01 05:34:43;;;;;;;2.35;1.75;;;7.00;99.90;;;;;;4991994;28;20105;-50
2021/12/01 05:37:08;;;;;;;4.20;1.92;;;7.00;99.90;;;;;;4992006;28;20112;-45
2021/12/01 05:39:34;;;;;;;4.70;3.03;;;7.00;99.90;;;;;;4991837;28;20518;-44
2021/12/01 05:42:00;;;;;;;2.83;2.17;;;7.00;99.90;;;;;;4991782;28;20031;-46
2021/12/01 05:44:26;;;;;;;2.13;2.03;;;7.00;99.90;;;;;;4991515;28;20062;-48
2021/12/01 05:46:51;;;;;;;5.03;2.70;;;7.00;99.90;;;;;;4991842;28;20046;-47
2021/12/01 05:49:17;;;;;;;5.55;1.90;;;7.00;99.90;;;;;;4991598;28;20504;-45
2021/12/01 05:51:43;;;;;;;4.13;2.70;;;7.00;99.90;;;;;;4991779;28;20027;-47
2021/12/01 05:54:09;;;;;;;3.22;2.50;;;7.00;99.90;;;;;;4991735;28;20077;-45
2021/12/01 05:56:35;;;;;;;2.97;2.08;;;7.10;99.90;;;;;;4991859;28;20443;-44
2021/12/01 05:59:01;;;;;;;3.83;1.92;;;7.10;99.90;;;;;;4991719;28;20114;-46
2021/12/01 06:01:26;;;;;;;2.75;2.55;;;7.00;99.90;;;;;;4991484;28;20026;-51
2021/12/01 06:03:52;;;;;;;2.40;2.00;;;7.10;99.90;;;;;;4991801;28;20018;-47
2021/12/01 06:06:17;;;;;;;5.63;2.28;;;7.10;99.90;;;;;;4992156;28;20031;-47
2021/12/01 06:08:43;;;;;;;2.55;2.35;;;7.10;99.90;;;;;;4991734;28;20397;-44
2021/12/01 06:11:08;;;;;;;5.55;2.60;;;7.00;99.90;;;;;;4991315;28;20447;-44
2021/12/01 06:13:35;;;;;;;2.20;1.90;;;7.10;99.90;;;;;;4991453;28;20034;-45
2021/12/01 06:16:00;;;;;;;2.03;1.90;;;7.00;99.90;;;;;;4991563;28;20038;-46
2021/12/01 06:18:29;;;;;;;6.07;2.22;;;7.10;99.90;;;;;;4993772;28;20160;-43
2021/12/01 06:20:55;;;;;;;2.25;2.08;;;7.00;99.90;;;;;;4995814;28;20027;-45
2021/12/01 06:23:21;;;;;;;2.40;2.20;;;7.10;99.90;;;;;;4995107;28;20042;-43
2021/12/01 06:25:47;;;;;;;2.58;2.05;;;7.00;99.90;;;;;;4995055;28;20026;-44
2021/12/01 06:28:12;;;;;;;2.95;1.90;;;7.10;99.90;;;;;;4995944;28;20026;-44
2021/12/01 06:30:38;;;;;;;3.63;2.05;;;7.10;99.90;;;;;;4995277;28;20113;-47
2021/12/01 06:33:05;;;;;;;3.83;2.05;;;7.10;99.90;;;;;;5040482;22;20050;-46
2021/12/01 06:35:30;;;;;;;4.13;2.53;;;7.20;99.90;;;;;;5034046;28;20380;-49
2021/12/01 06:37:56;;;;;;;2.38;2.17;;;7.10;99.90;;;;;;5034019;28;20075;-49
2021/12/01 06:40:26;;;;;;;2.33;2.15;;;7.10;99.90;;;;;;5033926;28;20026;-46
2021/12/01 06:42:52;;;;;;;2.25;2.05;;;7.20;99.90;;;;;;5033985;28;20022;-53
2021/12/01 06:45:18;;;;;;;7.53;3.53;;;7.20;99.90;;;;;;5033563;28;20112;-49
2021/12/01 06:47:43;;;;;;;1.85;1.75;;;7.20;99.90;;;;;;5034213;28;20129;-46
2021/12/01 06:50:10;;;;;;;2.15;1.90;;;7.20;99.90;;;;;;5033726;28;20087;-46
2021/12/01 06:52:38;;;;;;;2.83;2.08;;;7.20;99.90;;;;;;5034041;28;20025;-46
2021/12/01 06:55:05;;;;;;;5.07;1.80;;;7.10;99.90;;;;;;5033689;28;20018;-46
2021/12/01 06:57:31;;;;;;;2.80;1.90;;;7.20;99.90;;;;;;5034012;28;20021;-46
2021/12/01 06:59:56;;;;;;;2.13;1.90;;;7.20;99.90;;;;;;5033757;28;20030;-47
2021/12/01 07:02:22;;;;;;;7.72;1.88;;;7.20;99.90;;;;;;5033583;28;20071;-47
2021/12/01 07:04:48;;;;;;;3.90;1.77;;;7.20;99.90;;;;;;5033653;28;20057;-49
2021/12/01 07:07:13;;;;;;;1.63;1.52;;;7.30;99.90;;;;;;5033737;28;20547;-51
2021/12/01 07:09:40;;;;;;;4.35;2.65;;;7.20;99.90;;;;;;5033432;28;20359;-48
2021/12/01 07:12:06;;;;;;;4.65;1.25;;;7.20;99.90;;;;;;5032575;28;20392;-49
2021/12/01 07:14:31;;;;;;;1.58;1.48;;;7.30;99.90;;;;;;5032437;28;20037;-47
2021/12/01 07:16:57;;;;;;;3.35;1.73;;;7.20;99.90;;;;;;5033468;28;20033;-47
2021/12/01 07:19:22;;;;;;;2.03;1.92;;;7.20;99.90;;;;;;5031811;28;20076;-50
2021/12/01 07:21:48;;;;;;;1.63;1.50;;;7.30;99.90;;;;;;5033402;28;20389;-48
2021/12/01 07:24:15;;;;;;;2.25;1.58;;;7.20;99.90;;;;;;5033355;28;20048;-49
2021/12/01 07:26:41;;;;;;;2.75;1.27;;;7.30;99.90;;;;;;5033292;28;20044;-48
2021/12/01 07:29:07;;;;;;;1.35;1.25;;;7.30;99.90;;;;;;5032701;28;20486;-50
2021/12/01 07:31:32;;;;;;;2.75;1.52;;;7.30;99.90;;;;;;5033157;28;20023;-52
2021/12/01 07:33:58;;;;;;;1.75;1.45;;;7.30;99.90;;;;;;5033027;28;20025;-53
2021/12/01 07:36:24;;;;;;;3.50;1.45;;;7.40;99.90;;;;;;5033326;28;20541;-50
2021/12/01 07:38:50;;;;;;;1.30;1.20;;;7.40;99.90;;;;;;5031722;28;20026;-49
2021/12/01 07:41:17;;;;;;;1.58;1.48;;;7.40;99.90;;;;;;5032818;28;20022;-49
2021/12/01 07:43:42;;;;;;;2.05;1.05;;;7.30;99.90;;;;;;5032984;28;20045;-48
2021/12/01 07:46:08;;;;;;;1.33;1.30;;;7.20;99.90;;;;;;5033190;28;20075;-49
2021/12/01 07:48:36;;;;;;;4.32;1.48;;;7.20;99.90;;;;;;5033138;28;20029;-47
2021/12/01 07:51:02;;;;;;;3.22;1.40;;;7.20;99.90;;;;;;5032712;28;20032;-51
2021/12/01 07:53:27;;;;;;;3.50;1.80;;;7.10;99.90;;;;;;5032879;28;20079;-47
2021/12/01 07:55:53;;;;;;;1.83;1.73;;;7.10;99.90;;;;;;5032996;28;20134;-47
2021/12/01 07:58:18;;;;;;;3.13;1.30;;;7.00;99.90;;;;;;5032729;28;20036;-49
2021/12/01 08:00:44;;;;;;;3.63;1.63;;;7.10;99.90;;;;;;5032526;28;20032;-48
2021/12/01 08:03:09;;;;;;;1.50;1.40;;;7.00;99.90;;;;;;5032650;28;20017;-48
2021/12/01 08:05:35;;;;;;;4.20;1.27;;;7.00;99.90;;;;;;5032774;28;20017;-48
2021/12/01 08:08:01;;;;;;;2.95;1.45;;;7.00;99.90;;;;;;5031317;28;20028;-46
2021/12/01 08:10:26;;;;;;;1.60;1.38;;;7.10;99.90;;;;;;5032298;28;20025;-47
2021/12/01 08:12:52;;;;;;;1.10;1.10;;;7.00;99.90;;;;;;5030069;28;20021;-49
2021/12/01 08:15:17;;;;;;;1.70;1.10;;;7.10;99.90;;;;;;5032291;28;20391;-53
2021/12/01 08:17:43;;;;;;;4.22;1.10;;;7.10;99.90;;;;;;5032681;28;20028;-49
2021/12/01 08:20:10;;;;;;;1.48;1.20;;;7.20;99.90;;;;;;5030912;28;20495;-49
2021/12/01 08:22:35;;;;;;;1.25;0.70;;;7.10;99.90;;;;;;5031210;28;20030;-52
2021/12/01 08:25:01;;;;;;;1.20;1.10;;;7.20;99.90;;;;;;5031079;28;20046;-49
2021/12/01 08:27:28;;;;;;;1.20;1.10;;;7.20;99.90;;;;;;5032265;28;20021;-53
2021/12/01 08:29:54;;;;;;;7.53;4.63;;;7.20;99.90;;;;;;5031554;28;20033;-52
2021/12/01 08:32:20;;;;;;;11.88;7.13;;;7.20;99.90;;;;;;5032056;28;20040;-50
2021/12/01 08:34:49;;;;;;;2.47;1.20;;;7.10;99.90;;;;;;5032176;28;20025;-53
2021/12/01 08:37:18;;;;;;;1.58;1.42;;;7.10;99.90;;;;;;5031909;28;20040;-49
2021/12/01 08:39:48;;;;;;;1.63;1.52;;;7.10;99.90;;;;;;5030694;28;20091;-52
2021/12/01 08:42:15;;;;;;;1.92;1.75;;;7.10;99.90;;;;;;5031431;28;20049;-53
2021/12/01 08:44:45;;;;;;;1.33;1.15;;;7.10;99.90;;;;;;5031833;28;20022;-52
2021/12/01 08:47:12;;;;;;;1.20;1.10;;;7.10;99.90;;;;;;5031736;28;20017;-53
2021/12/01 08:49:38;;;;;;;1.60;1.13;;;7.10;99.90;;;;;;5031472;28;20429;-49
2021/12/01 08:52:04;;;;;;;1.40;1.30;;;7.10;99.90;;;;;;5031738;28;20036;-50
2021/12/01 08:54:30;;;;;;;1.20;1.10;;;7.00;99.90;;;;;;5031635;28;20516;-47
2021/12/01 08:56:57;;;;;;;0.95;0.95;;;7.00;99.90;;;;;;5030434;28;20026;-50
2021/12/01 08:59:23;;;;;;;0.90;0.90;;;7.10;99.90;;;;;;5031300;28;20045;-48
2021/12/01 09:01:49;;;;;;;1.33;1.17;;;7.10;99.90;;;;;;5031553;28;20493;-50
2021/12/01 09:04:15;;;;;;;3.45;1.13;;;7.10;99.90;;;;;;5031541;28;20017;-50
2021/12/01 09:06:41;;;;;;;1.10;1.00;;;7.00;99.90;;;;;;5031530;28;20036;-46
2021/12/01 09:09:07;;;;;;;1.08;1.08;;;7.10;99.90;;;;;;5031273;28;20394;-51
2021/12/01 09:11:32;;;;;;;1.40;1.30;;;7.00;99.90;;;;;;5031576;28;20021;-52
2021/12/01 09:13:58;;;;;;;1.92;1.02;;;7.00;99.90;;;;;;5031533;28;20021;-49
2021/12/01 09:16:25;;;;;;;1.17;1.00;;;7.00;99.90;;;;;;5031479;28;20390;-48
2021/12/01 09:18:51;;;;;;;1.75;1.10;;;7.00;99.90;;;;;;5031184;28;20056;-53
2021/12/01 09:21:18;;;;;;;1.92;0.90;;;7.00;99.90;;;;;;5031194;28;20065;-50
2021/12/01 09:23:44;;;;;;;5.03;1.10;;;7.00;99.90;;;;;;5031786;28;20022;-55
2021/12/01 09:26:09;;;;;;;2.35;0.90;;;7.00;99.90;;;;;;5031384;28;20403;-50
2021/12/01 09:28:35;;;;;;;0.70;0.70;;;7.00;99.90;;;;;;5030070;28;20030;-52
2021/12/01 09:31:01;;;;;;;1.10;1.00;;;7.10;99.90;;;;;;5030657;28;20416;-53
2021/12/01 09:33:28;;;;;;;3.72;1.63;;;7.10;99.90;;;;;;5031216;28;20037;-53
2021/12/01 09:35:54;;;;;;;1.33;1.10;;;7.20;99.90;;;;;;5031419;28;20053;-51
2021/12/01 09:38:20;;;;;;;1.20;1.13;;;7.10;99.90;;;;;;5031297;28;20513;-55
2021/12/01 09:40:52;;;;;;;2.38;0.88;;;7.20;99.90;;;;;;5030992;28;20029;-51
2021/12/01 09:43:19;;;;;;;1.00;1.00;;;7.20;99.90;;;;;;5030350;28;20025;-49
2021/12/01 09:45:45;;;;;;;1.10;0.82;;;7.20;99.90;;;;;;5031934;28;20030;-51
2021/12/01 09:48:11;;;;;;;1.35;0.95;;;7.30;99.90;;;;;;5029581;28;20030;-57
2021/12/01 09:50:37;;;;;;;1.20;1.20;;;7.30;99.90;;;;;;5019897;28;20018;-50
2021/12/01 09:53:03;;;;;;;2.63;0.80;;;7.30;99.90;;;;;;5034359;28;20049;-51
2021/12/01 09:55:28;;;;;;;1.75;1.25;;;7.30;99.90;;;;;;5034033;28;20076;-52
2021/12/01 09:58:11;;;;;;;1.35;1.00;;;7.30;99.90;;;;;;5024806;28;20053;-49
2021/12/01 10:00:38;;;;;;;0.80;0.80;;;7.30;99.90;;;;;;5014949;28;20117;-48
2021/12/01 10:03:04;;;;;;;0.90;0.90;;;7.40;99.90;;;;;;5034130;28;20044;-46
2021/12/01 10:06:02;;;;;;;1.30;1.20;;;7.40;99.90;;;;;;5034443;28;20458;-49
2021/12/01 10:08:30;;;;;;;1.58;1.45;;;7.40;99.90;;;;;;5034828;28;20037;-48
2021/12/01 10:10:57;;;;;;;1.23;1.02;;;7.40;99.90;;;;;;5034470;28;20491;-48
2021/12/01 10:13:31;;;;;;;2.33;0.95;;;7.40;99.90;;;;;;5034409;28;20025;-49
2021/12/01 10:16:01;;;;;;;0.90;0.90;;;7.50;99.90;;;;;;5034788;28;20364;-51
2021/12/01 10:18:29;;;;;;;1.40;1.30;;;7.40;99.90;;;;;;5033632;28;20022;-52
2021/12/01 10:21:27;;;;;;;1.60;1.35;;;7.40;99.90;;;;;;5032935;28;20024;-49
2021/12/01 10:23:56;;;;;;;1.23;1.10;;;7.50;99.90;;;;;;5026728;28;20041;-51
2021/12/01 10:26:40;;;;;;;2.05;1.42;;;7.50;99.90;;;;;;5034519;28;20034;-51
2021/12/01 10:29:15;;;;;;;3.08;1.50;;;7.50;99.90;;;;;;5032849;28;20167;-55
2021/12/01 10:31:52;;;;;;;1.38;1.25;;;7.50;99.90;;;;;;5033481;28;20380;-58
2021/12/01 10:34:17;;;;;;;1.50;1.40;;;7.50;99.90;;;;;;5022182;28;20041;-57
2021/12/01 10:36:44;;;;;;;1.33;1.23;;;7.60;99.90;;;;;;5026728;28;20030;-56
2021/12/01 10:39:10;;;;;;;1.10;1.00;;;7.60;99.90;;;;;;5031718;28;20045;-58
2021/12/01 10:41:37;;;;;;;2.95;1.38;;;7.60;99.90;;;;;;5033148;28;20488;-60
2021/12/01 10:44:14;;;;;;;1.30;1.20;;;7.60;99.90;;;;;;5033010;28;20027;-58
2021/12/01 10:46:49;;;;;;;1.60;0.90;;;7.60;99.90;;;;;;5033468;28;20037;-58
2021/12/01 10:49:15;;;;;;;0.80;0.80;;;7.60;99.90;;;;;;5033080;28;20045;-60
2021/12/01 10:51:43;;;;;;;8.25;4.95;;;7.60;99.90;;;;;;5032815;28;20166;-59
2021/12/01 10:54:20;;;;;;;25.80;12.88;;;7.60;99.90;;;;;;5032484;28;20471;-59
2021/12/01 10:57:06;;;;;;;8.20;1.35;;;7.60;99.90;;;;;;5033053;28;20247;-57
2021/12/01 10:59:46;;;;;;;1.00;0.90;;;7.70;99.90;;;;;;5032342;28;20084;-57
2021/12/01 11:02:13;;;;;;;1.65;1.10;;;7.70;99.90;;;;;;5031569;28;20040;-59
2021/12/01 11:04:46;;;;;;;0.80;0.80;;;7.80;99.90;;;;;;5032428;28;20032;-57
2021/12/01 11:07:34;;;;;;;0.88;0.88;;;7.80;99.90;;;;;;5033406;28;20585;-59
2021/12/01 11:10:28;;;;;;;0.88;0.85;;;8.10;99.90;;;;;;5032890;28;20033;-55
2021/12/01 11:12:59;;;;;;;0.50;0.50;;;8.20;99.90;;;;;;5023758;28;20040;-56
2021/12/01 11:15:31;;;;;;;0.50;0.50;;;8.30;99.90;;;;;;5033118;28;20028;-55
2021/12/01 11:17:58;;;;;;;0.40;0.40;;;8.50;99.90;;;;;;5032804;28;20122;-57
2021/12/01 11:20:38;;;;;;;0.60;0.50;;;8.60;99.90;;;;;;5032398;28;20519;-54
2021/12/01 11:23:22;;;;;;;0.55;0.55;;;8.70;99.90;;;;;;5031513;28;20066;-56
2021/12/01 11:26:10;;;;;;;0.60;0.60;;;8.80;99.90;;;;;;5032650;28;20026;-52
2021/12/01 11:28:51;;;;;;;0.30;0.30;;;8.80;99.90;;;;;;5032431;28;20411;-54
2021/12/01 11:31:21;;;;;;;0.30;0.30;;;8.90;99.90;;;;;;5032016;28;20025;-56
2021/12/01 11:33:47;;;;;;;0.40;0.40;;;8.90;99.90;;;;;;5030968;28;20044;-57
2021/12/01 11:36:23;;;;;;;0.30;0.30;;;9.00;99.90;;;;;;5031962;28;20040;-51
2021/12/01 11:38:55;;;;;;;0.20;0.20;;;9.00;99.90;;;;;;5030543;28;20021;-56
2021/12/01 11:41:22;;;;;;;0.30;0.30;;;9.00;99.90;;;;;;5031368;28;20094;-56
2021/12/01 11:43:49;;;;;;;0.30;0.30;;;9.00;99.90;;;;;;5024829;28;20018;-58
2021/12/01 11:46:16;;;;;;;0.30;0.30;;;9.00;99.90;;;;;;5011094;28;20105;-58
2021/12/01 11:48:54;;;;;;;0.30;0.30;;;9.10;99.90;;;;;;5025424;28;20025;-54
2021/12/01 11:51:27;;;;;;;0.38;0.38;;;9.10;99.90;;;;;;5011975;28;20648;-55
2021/12/01 11:54:03;;;;;;;0.30;0.30;;;9.10;99.90;;;;;;5012236;28;20029;-58
2021/12/01 11:56:33;;;;;;;0.45;0.45;;;9.00;99.90;;;;;;5013097;28;20109;-58
2021/12/01 11:59:05;;;;;;;0.40;0.40;;;9.00;99.90;;;;;;5011977;28;20022;-58
2021/12/01 12:01:33;;;;;;;2.20;0.30;;;9.00;99.90;;;;;;5030702;28;20078;-57
2021/12/01 12:04:01;;;;;;;1.30;0.30;;;9.10;99.90;;;;;;5032355;28;20018;-57
2021/12/01 12:06:31;;;;;;;2.60;0.40;;;9.10;99.90;;;;;;5032070;28;20048;-58
2021/12/01 12:08:58;;;;;;;0.38;0.38;;;9.10;99.90;;;;;;5030203;28;20040;-58
2021/12/01 12:11:34;;;;;;;0.30;0.30;;;9.00;99.90;;;;;;5030815;28;20506;-63
2021/12/01 12:14:06;;;;;;;0.22;0.22;;;9.00;99.90;;;;;;5031322;28;20399;-59
2021/12/01 12:16:32;;;;;;;0.38;0.38;;;9.00;99.90;;;;;;5030195;28;20494;-64
2021/12/01 12:18:59;;;;;;;0.20;0.20;;;9.00;99.90;;;;;;5030997;28;20037;-52
2021/12/01 12:24:14;;;;;;;1.00;0.35;;;9.10;99.90;;;;;;5031652;28;20125;-57
2021/12/01 12:26:45;;;;;;;0.73;0.30;;;9.10;99.90;;;;;;5029435;28;20017;-59
2021/12/01 12:29:13;;;;;;;0.30;0.30;;;9.10;99.90;;;;;;5030661;28;20034;-57
2021/12/01 12:31:40;;;;;;;1.55;0.30;;;9.20;99.90;;;;;;5037190;28;20111;-52
2021/12/01 12:34:17;;;;;;;0.20;0.20;;;9.20;99.90;;;;;;5053480;23;20045;-51
2021/12/01 12:36:54;;;;;;;0.30;0.30;;;9.20;99.90;;;;;;5031193;28;20033;-50
2021/12/01 12:39:23;;;;;;;1.83;0.50;;;9.30;99.90;;;;;;5031934;28;20021;-47
2021/12/01 12:41:55;;;;;;;0.30;0.30;;;9.30;99.90;;;;;;5032579;28;20489;-50
2021/12/01 12:44:48;;;;;;;3.75;2.60;;;9.30;99.90;;;;;;5032001;28;20017;-52
2021/12/01 12:47:23;;;;;;;43.92;24.08;;;9.40;99.90;;;;;;5031564;28;20041;-50
2021/12/01 12:49:55;;;;;;;0.60;0.60;;;9.40;99.90;;;;;;5031671;28;20021;-53
2021/12/01 12:52:33;;;;;;;0.40;0.40;;;9.30;99.90;;;;;;5031876;28;20105;-47
2021/12/01 12:55:09;;;;;;;0.30;0.30;;;9.40;99.90;;;;;;5031797;28;20057;-45
2021/12/01 12:57:51;;;;;;;0.30;0.30;;;9.30;99.90;;;;;;5032246;28;20076;-52
2021/12/01 13:00:56;;;;;;;0.43;0.30;;;9.30;99.90;;;;;;5031432;28;20032;-49
2021/12/01 13:03:24;;;;;;;0.40;0.40;;;9.30;99.90;;;;;;5032054;28;20021;-51
2021/12/01 13:05:52;;;;;;;0.30;0.30;;;9.20;99.90;;;;;;5031723;28;20032;-48
2021/12/01 13:08:31;;;;;;;0.30;0.30;;;9.10;99.90;;;;;;5031919;28;20112;-48
2021/12/01 13:11:13;;;;;;;0.50;0.40;;;9.10;99.90;;;;;;5014393;28;20625;-47